sensor_id;sensor_type;location;lat;lon;timestamp;P1;durP1;ratioP1;P2;durP2;ratioP2
75171;SDS011;63750;52.418;20.742;2023-05-21T00:00:01;14.10;;;12.60;;
75171;SDS011;63750;52.418;20.742;2023-05-21T00:02:28;14.40;;;12.90;;
75171;SDS011;63750;52.418;20.742;2023-05-21T00:04:55;14.70;;;13.40;;
75171;SDS011;63750;52.418;20.742;2023-05-21T00:07:22;13.50;;;12.30;;
75171;SDS011;63750;52.418;20.742;2023-05-21T00:09:49;14.00;;;12.80;;
75171;SDS011;63750;52.418;20.742;2023-05-21T00:12:16;14.40;;;13.10;;
75171;SDS011;63750;52.418;20.742;2023-05-21T00:14:43;13.80;;;12.50;;
75171;SDS011;63750;52.418;20.742;2023-05-21T00:17:10;13.90;;;12.60;;
75171;SDS011;63750;52.418;20.742;2023-05-21T00:19:37;13.60;;;12.30;;
75171;SDS011;63750;52.418;20.742;2023-05-21T00:22:04;14.00;;;12.60;;
75171;SDS011;63750;52.418;20.742;2023-05-21T00:24:31;14.70;;;13.30;;
75171;SDS011;63750;52.418;20.742;2023-05-21T00:26:58;13.90;;;12.50;;
75171;SDS011;63750;52.418;20.742;2023-05-21T00:29:25;12.90;;;11.80;;
75171;SDS011;63750;52.418;20.742;2023-05-21T00:31:52;14.00;;;12.60;;
75171;SDS011;63750;52.418;20.742;2023-05-21T00:34:19;14.10;;;12.70;;
75171;SDS011;63750;52.418;20.742;2023-05-21T00:36:46;14.70;;;12.50;;
75171;SDS011;63750;52.418;20.742;2023-05-21T00:39:13;14.00;;;12.60;;
75171;SDS011;63750;52.418;20.742;2023-05-21T00:41:40;13.20;;;11.80;;
75171;SDS011;63750;52.418;20.742;2023-05-21T00:44:07;13.00;;;11.90;;
75171;SDS011;63750;52.418;20.742;2023-05-21T00:46:34;13.90;;;12.40;;
75171;SDS011;63750;52.418;20.742;2023-05-21T00:49:02;13.80;;;12.40;;
75171;SDS011;63750;52.418;20.742;2023-05-21T00:51:29;14.20;;;12.90;;
75171;SDS011;63750;52.418;20.742;2023-05-21T00:53:56;13.70;;;12.40;;
75171;SDS011;63750;52.418;20.742;2023-05-21T00:56:23;14.30;;;12.90;;
75171;SDS011;63750;52.418;20.742;2023-05-21T00:58:51;14.70;;;13.30;;
75171;SDS011;63750;52.418;20.742;2023-05-21T01:01:19;14.20;;;12.80;;
75171;SDS011;63750;52.418;20.742;2023-05-21T01:03:46;13.90;;;12.50;;
75171;SDS011;63750;52.418;20.742;2023-05-21T01:06:13;13.20;;;11.90;;
75171;SDS011;63750;52.418;20.742;2023-05-21T01:08:40;13.20;;;11.90;;
75171;SDS011;63750;52.418;20.742;2023-05-21T01:11:07;13.00;;;11.90;;
75171;SDS011;63750;52.418;20.742;2023-05-21T01:13:36;14.10;;;12.70;;
75171;SDS011;63750;52.418;20.742;2023-05-21T01:16:06;13.40;;;12.10;;
75171;SDS011;63750;52.418;20.742;2023-05-21T01:18:33;14.50;;;13.10;;
75171;SDS011;63750;52.418;20.742;2023-05-21T01:21:01;14.70;;;12.60;;
75171;SDS011;63750;52.418;20.742;2023-05-21T01:23:28;13.80;;;12.50;;
75171;SDS011;63750;52.418;20.742;2023-05-21T01:25:56;13.90;;;12.50;;
75171;SDS011;63750;52.418;20.742;2023-05-21T01:28:22;15.30;;;12.70;;
75171;SDS011;63750;52.418;20.742;2023-05-21T01:30:49;13.60;;;12.30;;
75171;SDS011;63750;52.418;20.742;2023-05-21T01:33:17;13.20;;;11.80;;
75171;SDS011;63750;52.418;20.742;2023-05-21T01:35:49;13.80;;;12.50;;
75171;SDS011;63750;52.418;20.742;2023-05-21T01:38:21;14.00;;;12.70;;
75171;SDS011;63750;52.418;20.742;2023-05-21T01:40:52;13.20;;;12.00;;
75171;SDS011;63750;52.418;20.742;2023-05-21T01:43:21;14.40;;;13.00;;
75171;SDS011;63750;52.418;20.742;2023-05-21T01:45:53;13.90;;;12.50;;
75171;SDS011;63750;52.418;20.742;2023-05-21T01:48:21;13.10;;;11.90;;
75171;SDS011;63750;52.418;20.742;2023-05-21T01:50:50;12.90;;;11.80;;
75171;SDS011;63750;52.418;20.742;2023-05-21T01:53:18;13.20;;;11.80;;
75171;SDS011;63750;52.418;20.742;2023-05-21T01:55:45;13.10;;;11.80;;
75171;SDS011;63750;52.418;20.742;2023-05-21T01:58:12;13.60;;;11.60;;
75171;SDS011;63750;52.418;20.742;2023-05-21T02:00:40;12.80;;;11.70;;
75171;SDS011;63750;52.418;20.742;2023-05-21T02:03:07;12.40;;;11.10;;
75171;SDS011;63750;52.418;20.742;2023-05-21T02:05:34;12.40;;;11.40;;
75171;SDS011;63750;52.418;20.742;2023-05-21T02:08:01;12.70;;;11.50;;
75171;SDS011;63750;52.418;20.742;2023-05-21T02:10:28;12.70;;;11.40;;
75171;SDS011;63750;52.418;20.742;2023-05-21T02:12:55;12.90;;;11.50;;
75171;SDS011;63750;52.418;20.742;2023-05-21T02:15:23;13.50;;;11.80;;
75171;SDS011;63750;52.418;20.742;2023-05-21T02:17:50;13.00;;;11.60;;
75171;SDS011;63750;52.418;20.742;2023-05-21T02:20:17;11.80;;;10.70;;
75171;SDS011;63750;52.418;20.742;2023-05-21T02:22:45;12.20;;;11.10;;
75171;SDS011;63750;52.418;20.742;2023-05-21T02:25:13;11.40;;;10.40;;
75171;SDS011;63750;52.418;20.742;2023-05-21T02:27:42;11.80;;;10.60;;
75171;SDS011;63750;52.418;20.742;2023-05-21T02:30:10;12.80;;;11.60;;
75171;SDS011;63750;52.418;20.742;2023-05-21T02:32:39;12.60;;;11.30;;
75171;SDS011;63750;52.418;20.742;2023-05-21T02:35:07;12.40;;;11.10;;
75171;SDS011;63750;52.418;20.742;2023-05-21T02:37:35;11.90;;;10.70;;
75171;SDS011;63750;52.418;20.742;2023-05-21T02:40:04;11.70;;;10.60;;
75171;SDS011;63750;52.418;20.742;2023-05-21T02:42:32;13.20;;;11.80;;
75171;SDS011;63750;52.418;20.742;2023-05-21T02:45:00;12.20;;;11.10;;
75171;SDS011;63750;52.418;20.742;2023-05-21T02:47:27;12.30;;;11.10;;
75171;SDS011;63750;52.418;20.742;2023-05-21T02:49:54;12.20;;;11.00;;
75171;SDS011;63750;52.418;20.742;2023-05-21T02:52:23;12.50;;;11.30;;
75171;SDS011;63750;52.418;20.742;2023-05-21T02:54:50;11.80;;;10.70;;
75171;SDS011;63750;52.418;20.742;2023-05-21T02:57:18;12.30;;;11.10;;
75171;SDS011;63750;52.418;20.742;2023-05-21T02:59:45;12.00;;;10.80;;
75171;SDS011;63750;52.418;20.742;2023-05-21T03:02:12;12.30;;;10.80;;
75171;SDS011;63750;52.418;20.742;2023-05-21T03:04:39;11.90;;;10.90;;
75171;SDS011;63750;52.418;20.742;2023-05-21T03:07:06;13.10;;;11.80;;
75171;SDS011;63750;52.418;20.742;2023-05-21T03:09:33;11.40;;;10.30;;
75171;SDS011;63750;52.418;20.742;2023-05-21T03:12:00;11.60;;;10.50;;
75171;SDS011;63750;52.418;20.742;2023-05-21T03:14:27;12.30;;;10.80;;
75171;SDS011;63750;52.418;20.742;2023-05-21T03:16:54;11.30;;;10.10;;
75171;SDS011;63750;52.418;20.742;2023-05-21T03:19:21;11.20;;;10.30;;
75171;SDS011;63750;52.418;20.742;2023-05-21T03:21:48;11.40;;;10.40;;
75171;SDS011;63750;52.418;20.742;2023-05-21T03:24:15;10.50;;;9.50;;
75171;SDS011;63750;52.418;20.742;2023-05-21T03:26:42;11.90;;;9.60;;
75171;SDS011;63750;52.418;20.742;2023-05-21T03:29:09;11.20;;;10.00;;
75171;SDS011;63750;52.418;20.742;2023-05-21T03:31:36;10.30;;;9.30;;
75171;SDS011;63750;52.418;20.742;2023-05-21T03:34:03;10.30;;;9.30;;
75171;SDS011;63750;52.418;20.742;2023-05-21T03:36:30;11.80;;;10.00;;
75171;SDS011;63750;52.418;20.742;2023-05-21T03:38:57;10.30;;;9.30;;
75171;SDS011;63750;52.418;20.742;2023-05-21T03:41:24;10.30;;;9.30;;
75171;SDS011;63750;52.418;20.742;2023-05-21T03:43:51;10.80;;;9.70;;
75171;SDS011;63750;52.418;20.742;2023-05-21T03:46:18;10.50;;;8.60;;
75171;SDS011;63750;52.418;20.742;2023-05-21T03:48:45;9.60;;;8.70;;
75171;SDS011;63750;52.418;20.742;2023-05-21T03:51:12;8.60;;;7.80;;
75171;SDS011;63750;52.418;20.742;2023-05-21T03:53:39;8.90;;;8.00;;
75171;SDS011;63750;52.418;20.742;2023-05-21T03:56:06;9.60;;;8.70;;
75171;SDS011;63750;52.418;20.742;2023-05-21T03:58:33;8.80;;;8.00;;
75171;SDS011;63750;52.418;20.742;2023-05-21T04:01:00;10.10;;;8.90;;
75171;SDS011;63750;52.418;20.742;2023-05-21T04:03:27;9.30;;;8.50;;
75171;SDS011;63750;52.418;20.742;2023-05-21T04:05:55;9.80;;;8.80;;
75171;SDS011;63750;52.418;20.742;2023-05-21T04:08:22;9.70;;;8.80;;
75171;SDS011;63750;52.418;20.742;2023-05-21T04:10:49;10.20;;;8.50;;
75171;SDS011;63750;52.418;20.742;2023-05-21T04:13:16;10.40;;;8.70;;
75171;SDS011;63750;52.418;20.742;2023-05-21T04:15:43;9.50;;;8.60;;
75171;SDS011;63750;52.418;20.742;2023-05-21T04:18:10;9.20;;;8.30;;
75171;SDS011;63750;52.418;20.742;2023-05-21T04:20:37;9.30;;;8.50;;
75171;SDS011;63750;52.418;20.742;2023-05-21T04:23:04;9.30;;;8.40;;
75171;SDS011;63750;52.418;20.742;2023-05-21T04:25:32;9.20;;;8.40;;
75171;SDS011;63750;52.418;20.742;2023-05-21T04:27:59;8.80;;;8.00;;
75171;SDS011;63750;52.418;20.742;2023-05-21T04:30:26;8.80;;;8.00;;
75171;SDS011;63750;52.418;20.742;2023-05-21T04:32:53;9.00;;;8.20;;
75171;SDS011;63750;52.418;20.742;2023-05-21T04:35:20;8.70;;;7.80;;
75171;SDS011;63750;52.418;20.742;2023-05-21T04:37:47;8.90;;;7.80;;
75171;SDS011;63750;52.418;20.742;2023-05-21T04:40:14;8.70;;;7.90;;
75171;SDS011;63750;52.418;20.742;2023-05-21T04:42:41;11.20;;;8.00;;
75171;SDS011;63750;52.418;20.742;2023-05-21T04:45:09;11.40;;;10.20;;
75171;SDS011;63750;52.418;20.742;2023-05-21T04:47:36;12.30;;;9.00;;
75171;SDS011;63750;52.418;20.742;2023-05-21T04:50:05;8.50;;;7.70;;
75171;SDS011;63750;52.418;20.742;2023-05-21T04:52:33;7.20;;;6.60;;
75171;SDS011;63750;52.418;20.742;2023-05-21T04:55:00;8.00;;;7.30;;
75171;SDS011;63750;52.418;20.742;2023-05-21T04:57:27;8.10;;;7.40;;
75171;SDS011;63750;52.418;20.742;2023-05-21T04:59:54;8.80;;;8.00;;
75171;SDS011;63750;52.418;20.742;2023-05-21T05:02:21;8.50;;;7.70;;
75171;SDS011;63750;52.418;20.742;2023-05-21T05:04:48;8.80;;;7.90;;
75171;SDS011;63750;52.418;20.742;2023-05-21T05:07:15;7.80;;;7.20;;
75171;SDS011;63750;52.418;20.742;2023-05-21T05:09:42;7.00;;;6.40;;
75171;SDS011;63750;52.418;20.742;2023-05-21T05:12:09;7.90;;;7.10;;
75171;SDS011;63750;52.418;20.742;2023-05-21T05:14:36;7.40;;;6.80;;
75171;SDS011;63750;52.418;20.742;2023-05-21T05:17:03;7.60;;;6.90;;
75171;SDS011;63750;52.418;20.742;2023-05-21T05:19:30;7.40;;;6.70;;
75171;SDS011;63750;52.418;20.742;2023-05-21T05:21:57;8.60;;;6.50;;
75171;SDS011;63750;52.418;20.742;2023-05-21T05:24:24;8.90;;;6.90;;
75171;SDS011;63750;52.418;20.742;2023-05-21T05:26:51;7.70;;;6.50;;
75171;SDS011;63750;52.418;20.742;2023-05-21T05:29:18;7.40;;;6.40;;
75171;SDS011;63750;52.418;20.742;2023-05-21T05:31:45;7.20;;;6.50;;
75171;SDS011;63750;52.418;20.742;2023-05-21T05:34:12;6.40;;;5.80;;
75171;SDS011;63750;52.418;20.742;2023-05-21T05:36:40;7.80;;;6.40;;
75171;SDS011;63750;52.418;20.742;2023-05-21T05:39:06;7.00;;;6.00;;
75171;SDS011;63750;52.418;20.742;2023-05-21T05:41:33;6.80;;;6.10;;
75171;SDS011;63750;52.418;20.742;2023-05-21T05:44:02;6.20;;;5.60;;
75171;SDS011;63750;52.418;20.742;2023-05-21T05:46:29;6.90;;;6.20;;
75171;SDS011;63750;52.418;20.742;2023-05-21T05:48:56;7.00;;;6.40;;
75171;SDS011;63750;52.418;20.742;2023-05-21T05:51:23;9.60;;;8.60;;
75171;SDS011;63750;52.418;20.742;2023-05-21T05:53:53;7.00;;;6.30;;
75171;SDS011;63750;52.418;20.742;2023-05-21T05:56:20;7.50;;;6.80;;
75171;SDS011;63750;52.418;20.742;2023-05-21T05:58:47;7.50;;;6.60;;
75171;SDS011;63750;52.418;20.742;2023-05-21T06:01:14;7.10;;;6.50;;
75171;SDS011;63750;52.418;20.742;2023-05-21T06:03:41;6.40;;;5.80;;
75171;SDS011;63750;52.418;20.742;2023-05-21T06:06:08;161.20;;;107.40;;
75171;SDS011;63750;52.418;20.742;2023-05-21T06:08:36;23.40;;;17.40;;
75171;SDS011;63750;52.418;20.742;2023-05-21T06:11:03;11.90;;;9.70;;
75171;SDS011;63750;52.418;20.742;2023-05-21T06:13:30;10.50;;;9.40;;
75171;SDS011;63750;52.418;20.742;2023-05-21T06:15:57;7.70;;;6.90;;
75171;SDS011;63750;52.418;20.742;2023-05-21T06:18:24;7.80;;;6.30;;
75171;SDS011;63750;52.418;20.742;2023-05-21T06:20:50;7.80;;;7.10;;
75171;SDS011;63750;52.418;20.742;2023-05-21T06:23:18;9.90;;;8.40;;
75171;SDS011;63750;52.418;20.742;2023-05-21T06:25:45;7.40;;;6.70;;
75171;SDS011;63750;52.418;20.742;2023-05-21T06:28:12;8.20;;;6.60;;
75171;SDS011;63750;52.418;20.742;2023-05-21T06:30:39;9.20;;;8.30;;
75171;SDS011;63750;52.418;20.742;2023-05-21T06:33:06;9.20;;;6.40;;
75171;SDS011;63750;52.418;20.742;2023-05-21T06:35:33;6.40;;;5.80;;
75171;SDS011;63750;52.418;20.742;2023-05-21T06:38:00;7.10;;;6.40;;
75171;SDS011;63750;52.418;20.742;2023-05-21T06:40:27;7.40;;;6.50;;
75171;SDS011;63750;52.418;20.742;2023-05-21T06:42:53;10.00;;;7.10;;
75171;SDS011;63750;52.418;20.742;2023-05-21T06:45:21;6.50;;;6.00;;
75171;SDS011;63750;52.418;20.742;2023-05-21T06:47:47;8.50;;;7.10;;
75171;SDS011;63750;52.418;20.742;2023-05-21T06:50:15;7.20;;;6.50;;
75171;SDS011;63750;52.418;20.742;2023-05-21T06:52:42;6.90;;;6.30;;
75171;SDS011;63750;52.418;20.742;2023-05-21T06:55:09;6.40;;;5.80;;
75171;SDS011;63750;52.418;20.742;2023-05-21T06:57:37;7.90;;;5.60;;
75171;SDS011;63750;52.418;20.742;2023-05-21T07:00:04;9.70;;;6.80;;
75171;SDS011;63750;52.418;20.742;2023-05-21T07:02:33;48.40;;;20.20;;
75171;SDS011;63750;52.418;20.742;2023-05-21T07:05:00;21.20;;;11.60;;
75171;SDS011;63750;52.418;20.742;2023-05-21T07:07:27;178.90;;;69.80;;
75171;SDS011;63750;52.418;20.742;2023-05-21T07:09:54;42.40;;;20.10;;
75171;SDS011;63750;52.418;20.742;2023-05-21T07:12:21;22.70;;;12.10;;
75171;SDS011;63750;52.418;20.742;2023-05-21T07:14:47;368.00;;;141.90;;
75171;SDS011;63750;52.418;20.742;2023-05-21T07:17:14;349.40;;;136.70;;
75171;SDS011;63750;52.418;20.742;2023-05-21T07:19:41;384.20;;;153.60;;
75171;SDS011;63750;52.418;20.742;2023-05-21T07:22:08;292.20;;;119.60;;
75171;SDS011;63750;52.418;20.742;2023-05-21T07:25:05;124.50;;;44.60;;
75171;SDS011;63750;52.418;20.742;2023-05-21T07:27:33;272.90;;;102.30;;
75171;SDS011;63750;52.418;20.742;2023-05-21T07:30:00;113.90;;;48.00;;
75171;SDS011;63750;52.418;20.742;2023-05-21T07:32:27;178.50;;;68.00;;
75171;SDS011;63750;52.418;20.742;2023-05-21T07:34:54;271.30;;;123.20;;
75171;SDS011;63750;52.418;20.742;2023-05-21T07:37:21;41.90;;;20.60;;
75171;SDS011;63750;52.418;20.742;2023-05-21T07:39:49;8.50;;;7.60;;
75171;SDS011;63750;52.418;20.742;2023-05-21T07:42:16;6.40;;;5.60;;
75171;SDS011;63750;52.418;20.742;2023-05-21T07:44:43;6.00;;;5.20;;
75171;SDS011;63750;52.418;20.742;2023-05-21T07:47:10;5.40;;;5.00;;
75171;SDS011;63750;52.418;20.742;2023-05-21T07:49:37;5.30;;;4.80;;
75171;SDS011;63750;52.418;20.742;2023-05-21T07:52:05;5.60;;;4.80;;
75171;SDS011;63750;52.418;20.742;2023-05-21T07:54:32;4.70;;;4.20;;
75171;SDS011;63750;52.418;20.742;2023-05-21T07:56:59;4.70;;;4.30;;
75171;SDS011;63750;52.418;20.742;2023-05-21T07:59:26;5.30;;;4.70;;
75171;SDS011;63750;52.418;20.742;2023-05-21T08:01:54;4.90;;;4.10;;
75171;SDS011;63750;52.418;20.742;2023-05-21T08:04:21;4.30;;;3.90;;
75171;SDS011;63750;52.418;20.742;2023-05-21T08:06:48;4.50;;;4.10;;
75171;SDS011;63750;52.418;20.742;2023-05-21T08:09:15;4.50;;;4.10;;
75171;SDS011;63750;52.418;20.742;2023-05-21T08:11:42;10.80;;;8.60;;
75171;SDS011;63750;52.418;20.742;2023-05-21T08:14:09;5.40;;;4.40;;
75171;SDS011;63750;52.418;20.742;2023-05-21T08:16:37;5.10;;;4.10;;
75171;SDS011;63750;52.418;20.742;2023-05-21T08:19:04;4.40;;;3.80;;
75171;SDS011;63750;52.418;20.742;2023-05-21T08:21:30;5.10;;;4.30;;
75171;SDS011;63750;52.418;20.742;2023-05-21T08:23:58;6.10;;;4.30;;
75171;SDS011;63750;52.418;20.742;2023-05-21T08:26:25;7.10;;;5.30;;
75171;SDS011;63750;52.418;20.742;2023-05-21T08:28:52;5.10;;;4.40;;
75171;SDS011;63750;52.418;20.742;2023-05-21T08:31:19;4.70;;;4.30;;
75171;SDS011;63750;52.418;20.742;2023-05-21T08:33:49;6.10;;;4.70;;
75171;SDS011;63750;52.418;20.742;2023-05-21T08:36:17;6.60;;;4.30;;
75171;SDS011;63750;52.418;20.742;2023-05-21T08:38:44;4.10;;;3.70;;
75171;SDS011;63750;52.418;20.742;2023-05-21T08:41:11;4.10;;;3.70;;
75171;SDS011;63750;52.418;20.742;2023-05-21T08:43:38;3.50;;;3.20;;
75171;SDS011;63750;52.418;20.742;2023-05-21T08:46:06;3.70;;;3.40;;
75171;SDS011;63750;52.418;20.742;2023-05-21T08:48:34;5.50;;;3.90;;
75171;SDS011;63750;52.418;20.742;2023-05-21T08:51:02;3.70;;;3.40;;
75171;SDS011;63750;52.418;20.742;2023-05-21T08:53:31;4.60;;;3.90;;
75171;SDS011;63750;52.418;20.742;2023-05-21T08:55:58;4.80;;;4.00;;
75171;SDS011;63750;52.418;20.742;2023-05-21T08:58:27;6.10;;;3.40;;
75171;SDS011;63750;52.418;20.742;2023-05-21T09:00:57;4.20;;;3.80;;
75171;SDS011;63750;52.418;20.742;2023-05-21T09:03:24;4.50;;;3.50;;
75171;SDS011;63750;52.418;20.742;2023-05-21T09:05:52;4.00;;;3.60;;
75171;SDS011;63750;52.418;20.742;2023-05-21T09:08:23;5.60;;;3.10;;
75171;SDS011;63750;52.418;20.742;2023-05-21T09:10:54;5.50;;;4.20;;
75171;SDS011;63750;52.418;20.742;2023-05-21T09:13:21;4.80;;;4.00;;
75171;SDS011;63750;52.418;20.742;2023-05-21T09:15:51;4.80;;;3.90;;
75171;SDS011;63750;52.418;20.742;2023-05-21T09:18:18;4.60;;;4.20;;
75171;SDS011;63750;52.418;20.742;2023-05-21T09:20:45;5.10;;;4.60;;
75171;SDS011;63750;52.418;20.742;2023-05-21T09:23:15;4.10;;;3.50;;
75171;SDS011;63750;52.418;20.742;2023-05-21T09:25:44;4.00;;;3.70;;
75171;SDS011;63750;52.418;20.742;2023-05-21T09:28:13;5.00;;;4.50;;
75171;SDS011;63750;52.418;20.742;2023-05-21T09:30:44;5.50;;;3.60;;
75171;SDS011;63750;52.418;20.742;2023-05-21T09:33:12;5.90;;;3.60;;
75171;SDS011;63750;52.418;20.742;2023-05-21T09:35:50;4.10;;;3.80;;
75171;SDS011;63750;52.418;20.742;2023-05-21T09:38:17;3.80;;;3.50;;
75171;SDS011;63750;52.418;20.742;2023-05-21T09:40:47;4.90;;;4.00;;
75171;SDS011;63750;52.418;20.742;2023-05-21T09:43:14;7.70;;;4.00;;
75171;SDS011;63750;52.418;20.742;2023-05-21T09:45:49;4.90;;;4.40;;
75171;SDS011;63750;52.418;20.742;2023-05-21T09:48:17;5.20;;;4.30;;
75171;SDS011;63750;52.418;20.742;2023-05-21T09:51:06;4.50;;;4.00;;
75171;SDS011;63750;52.418;20.742;2023-05-21T09:53:33;5.00;;;4.50;;
75171;SDS011;63750;52.418;20.742;2023-05-21T09:56:01;4.70;;;4.20;;
75171;SDS011;63750;52.418;20.742;2023-05-21T09:58:28;4.90;;;4.10;;
75171;SDS011;63750;52.418;20.742;2023-05-21T10:00:59;5.00;;;3.90;;
75171;SDS011;63750;52.418;20.742;2023-05-21T10:03:27;5.60;;;4.10;;
75171;SDS011;63750;52.418;20.742;2023-05-21T10:05:56;5.00;;;3.80;;
75171;SDS011;63750;52.418;20.742;2023-05-21T10:08:26;4.50;;;3.90;;
75171;SDS011;63750;52.418;20.742;2023-05-21T10:10:58;4.50;;;4.10;;
75171;SDS011;63750;52.418;20.742;2023-05-21T10:13:26;4.10;;;3.60;;
75171;SDS011;63750;52.418;20.742;2023-05-21T10:15:54;4.30;;;4.00;;
75171;SDS011;63750;52.418;20.742;2023-05-21T10:18:26;3.90;;;3.50;;
75171;SDS011;63750;52.418;20.742;2023-05-21T10:20:54;4.50;;;3.90;;
75171;SDS011;63750;52.418;20.742;2023-05-21T10:23:22;4.30;;;4.00;;
75171;SDS011;63750;52.418;20.742;2023-05-21T10:25:49;4.70;;;4.00;;
75171;SDS011;63750;52.418;20.742;2023-05-21T10:28:17;4.30;;;3.60;;
75171;SDS011;63750;52.418;20.742;2023-05-21T10:30:44;5.30;;;3.80;;
75171;SDS011;63750;52.418;20.742;2023-05-21T10:33:12;4.40;;;4.00;;
75171;SDS011;63750;52.418;20.742;2023-05-21T10:35:42;4.70;;;4.20;;
75171;SDS011;63750;52.418;20.742;2023-05-21T10:38:11;4.30;;;3.90;;
75171;SDS011;63750;52.418;20.742;2023-05-21T10:40:40;5.60;;;3.80;;
75171;SDS011;63750;52.418;20.742;2023-05-21T10:43:12;4.30;;;3.90;;
75171;SDS011;63750;52.418;20.742;2023-05-21T10:46:12;5.30;;;3.70;;
75171;SDS011;63750;52.418;20.742;2023-05-21T10:48:52;4.30;;;3.90;;
75171;SDS011;63750;52.418;20.742;2023-05-21T10:51:25;4.80;;;3.80;;
75171;SDS011;63750;52.418;20.742;2023-05-21T10:54:14;3.90;;;3.60;;
75171;SDS011;63750;52.418;20.742;2023-05-21T10:56:59;3.90;;;3.60;;
75171;SDS011;63750;52.418;20.742;2023-05-21T10:59:38;4.20;;;3.80;;
75171;SDS011;63750;52.418;20.742;2023-05-21T11:02:07;5.50;;;3.70;;
75171;SDS011;63750;52.418;20.742;2023-05-21T11:04:38;4.00;;;3.70;;
75171;SDS011;63750;52.418;20.742;2023-05-21T11:07:06;3.70;;;3.40;;
75171;SDS011;63750;52.418;20.742;2023-05-21T11:09:33;4.50;;;3.60;;
75171;SDS011;63750;52.418;20.742;2023-05-21T11:12:01;4.90;;;4.50;;
75171;SDS011;63750;52.418;20.742;2023-05-21T11:14:28;5.40;;;3.80;;
75171;SDS011;63750;52.418;20.742;2023-05-21T11:17:00;7.20;;;5.50;;
75171;SDS011;63750;52.418;20.742;2023-05-21T11:19:32;5.20;;;4.70;;
75171;SDS011;63750;52.418;20.742;2023-05-21T11:22:00;5.50;;;4.80;;
75171;SDS011;63750;52.418;20.742;2023-05-21T11:24:30;5.10;;;4.20;;
75171;SDS011;63750;52.418;20.742;2023-05-21T11:26:59;4.10;;;3.80;;
75171;SDS011;63750;52.418;20.742;2023-05-21T11:29:37;5.30;;;4.30;;
75171;SDS011;63750;52.418;20.742;2023-05-21T11:32:07;6.40;;;5.10;;
75171;SDS011;63750;52.418;20.742;2023-05-21T11:34:36;5.00;;;4.50;;
75171;SDS011;63750;52.418;20.742;2023-05-21T11:37:22;4.90;;;4.50;;
75171;SDS011;63750;52.418;20.742;2023-05-21T11:39:55;4.90;;;3.40;;
75171;SDS011;63750;52.418;20.742;2023-05-21T11:42:27;4.50;;;3.90;;
75171;SDS011;63750;52.418;20.742;2023-05-21T11:44:56;4.70;;;3.40;;
75171;SDS011;63750;52.418;20.742;2023-05-21T11:47:24;5.80;;;3.40;;
75171;SDS011;63750;52.418;20.742;2023-05-21T11:49:52;5.30;;;4.10;;
75171;SDS011;63750;52.418;20.742;2023-05-21T11:52:19;5.30;;;3.30;;
75171;SDS011;63750;52.418;20.742;2023-05-21T11:54:47;6.40;;;4.00;;
75171;SDS011;63750;52.418;20.742;2023-05-21T11:57:16;4.40;;;3.80;;
75171;SDS011;63750;52.418;20.742;2023-05-21T11:59:43;3.80;;;3.40;;
75171;SDS011;63750;52.418;20.742;2023-05-21T12:02:13;3.80;;;3.40;;
75171;SDS011;63750;52.418;20.742;2023-05-21T12:04:41;5.90;;;3.50;;
75171;SDS011;63750;52.418;20.742;2023-05-21T12:07:09;4.50;;;3.20;;
75171;SDS011;63750;52.418;20.742;2023-05-21T12:09:40;3.90;;;3.50;;
75171;SDS011;63750;52.418;20.742;2023-05-21T12:12:09;3.80;;;3.60;;
75171;SDS011;63750;52.418;20.742;2023-05-21T12:14:37;4.50;;;3.40;;
75171;SDS011;63750;52.418;20.742;2023-05-21T12:17:05;4.10;;;3.70;;
75171;SDS011;63750;52.418;20.742;2023-05-21T12:19:32;4.40;;;3.60;;
75171;SDS011;63750;52.418;20.742;2023-05-21T12:22:01;4.90;;;3.40;;
75171;SDS011;63750;52.418;20.742;2023-05-21T12:24:28;3.80;;;3.50;;
75171;SDS011;63750;52.418;20.742;2023-05-21T12:26:56;5.70;;;4.50;;
75171;SDS011;63750;52.418;20.742;2023-05-21T12:29:23;4.00;;;3.40;;
75171;SDS011;63750;52.418;20.742;2023-05-21T12:31:51;4.60;;;3.70;;
75171;SDS011;63750;52.418;20.742;2023-05-21T12:37:03;4.00;;;3.60;;
75171;SDS011;63750;52.418;20.742;2023-05-21T12:39:31;4.70;;;4.30;;
75171;SDS011;63750;52.418;20.742;2023-05-21T12:42:02;6.00;;;4.00;;
75171;SDS011;63750;52.418;20.742;2023-05-21T12:44:29;3.70;;;3.40;;
75171;SDS011;63750;52.418;20.742;2023-05-21T12:46:57;5.40;;;4.10;;
75171;SDS011;63750;52.418;20.742;2023-05-21T12:49:30;4.20;;;3.80;;
75171;SDS011;63750;52.418;20.742;2023-05-21T12:52:01;4.10;;;3.80;;
75171;SDS011;63750;52.418;20.742;2023-05-21T12:54:33;4.70;;;4.10;;
75171;SDS011;63750;52.418;20.742;2023-05-21T12:57:08;4.50;;;3.70;;
75171;SDS011;63750;52.418;20.742;2023-05-21T12:59:49;4.50;;;3.70;;
75171;SDS011;63750;52.418;20.742;2023-05-21T13:02:20;5.70;;;4.00;;
75171;SDS011;63750;52.418;20.742;2023-05-21T13:04:52;4.70;;;3.70;;
75171;SDS011;63750;52.418;20.742;2023-05-21T13:07:20;6.20;;;3.50;;
75171;SDS011;63750;52.418;20.742;2023-05-21T13:09:47;4.00;;;3.30;;
75171;SDS011;63750;52.418;20.742;2023-05-21T13:12:14;4.00;;;3.60;;
75171;SDS011;63750;52.418;20.742;2023-05-21T13:14:41;3.80;;;3.50;;
75171;SDS011;63750;52.418;20.742;2023-05-21T13:17:09;4.00;;;3.60;;
75171;SDS011;63750;52.418;20.742;2023-05-21T13:19:36;4.20;;;3.40;;
75171;SDS011;63750;52.418;20.742;2023-05-21T13:22:03;3.70;;;3.30;;
75171;SDS011;63750;52.418;20.742;2023-05-21T13:24:30;4.70;;;4.30;;
75171;SDS011;63750;52.418;20.742;2023-05-21T13:26:58;4.40;;;3.40;;
75171;SDS011;63750;52.418;20.742;2023-05-21T13:29:25;4.10;;;3.80;;
75171;SDS011;63750;52.418;20.742;2023-05-21T13:31:51;4.30;;;3.70;;
75171;SDS011;63750;52.418;20.742;2023-05-21T13:34:19;4.30;;;3.80;;
75171;SDS011;63750;52.418;20.742;2023-05-21T13:36:46;4.10;;;3.40;;
75171;SDS011;63750;52.418;20.742;2023-05-21T13:39:13;5.00;;;4.50;;
75171;SDS011;63750;52.418;20.742;2023-05-21T13:41:40;7.80;;;3.60;;
75171;SDS011;63750;52.418;20.742;2023-05-21T13:44:07;3.40;;;3.10;;
75171;SDS011;63750;52.418;20.742;2023-05-21T13:46:34;4.70;;;3.50;;
75171;SDS011;63750;52.418;20.742;2023-05-21T13:49:01;4.00;;;3.10;;
75171;SDS011;63750;52.418;20.742;2023-05-21T13:51:28;4.70;;;3.40;;
75171;SDS011;63750;52.418;20.742;2023-05-21T13:53:55;3.40;;;3.10;;
75171;SDS011;63750;52.418;20.742;2023-05-21T13:56:22;8.00;;;4.10;;
75171;SDS011;63750;52.418;20.742;2023-05-21T13:58:49;3.50;;;3.20;;
75171;SDS011;63750;52.418;20.742;2023-05-21T14:01:16;4.00;;;3.50;;
75171;SDS011;63750;52.418;20.742;2023-05-21T14:03:43;3.80;;;3.50;;
75171;SDS011;63750;52.418;20.742;2023-05-21T14:06:10;3.50;;;3.20;;
75171;SDS011;63750;52.418;20.742;2023-05-21T14:08:37;3.30;;;3.10;;
75171;SDS011;63750;52.418;20.742;2023-05-21T14:11:04;5.30;;;3.80;;
75171;SDS011;63750;52.418;20.742;2023-05-21T14:13:31;3.70;;;2.90;;
75171;SDS011;63750;52.418;20.742;2023-05-21T14:15:58;4.00;;;3.30;;
75171;SDS011;63750;52.418;20.742;2023-05-21T14:18:25;3.30;;;3.00;;
75171;SDS011;63750;52.418;20.742;2023-05-21T14:20:53;4.30;;;3.40;;
75171;SDS011;63750;52.418;20.742;2023-05-21T14:23:19;4.40;;;3.40;;
75171;SDS011;63750;52.418;20.742;2023-05-21T14:25:47;4.10;;;3.80;;
75171;SDS011;63750;52.418;20.742;2023-05-21T14:28:14;4.10;;;3.70;;
75171;SDS011;63750;52.418;20.742;2023-05-21T14:30:41;4.10;;;3.20;;
75171;SDS011;63750;52.418;20.742;2023-05-21T14:33:08;4.00;;;3.30;;